sensor_id;sensor_type;location;lat;lon;timestamp;P1;durP1;ratioP1;P2;durP2;ratioP2
30378;SDS011;17168;49.164;9.060;2023-03-01T00:02:27;12.10;;;5.95;;
30378;SDS011;17168;49.164;9.060;2023-03-01T00:04:59;12.60;;;5.55;;
30378;SDS011;17168;49.164;9.060;2023-03-01T00:07:31;12.25;;;5.32;;
30378;SDS011;17168;49.164;9.060;2023-03-01T00:10:06;9.57;;;5.47;;
30378;SDS011;17168;49.164;9.060;2023-03-01T00:12:39;14.50;;;6.80;;
30378;SDS011;17168;49.164;9.060;2023-03-01T00:15:11;12.02;;;6.10;;
30378;SDS011;17168;49.164;9.060;2023-03-01T00:17:43;11.52;;;6.03;;
30378;SDS011;17168;49.164;9.060;2023-03-01T00:22:48;12.73;;;5.65;;
30378;SDS011;17168;49.164;9.060;2023-03-01T00:25:22;14.02;;;6.00;;
30378;SDS011;17168;49.164;9.060;2023-03-01T00:27:55;12.73;;;5.50;;
30378;SDS011;17168;49.164;9.060;2023-03-01T00:30:26;10.70;;;5.28;;
30378;SDS011;17168;49.164;9.060;2023-03-01T00:35:31;13.85;;;5.85;;
30378;SDS011;17168;49.164;9.060;2023-03-01T00:38:04;11.82;;;5.55;;
30378;SDS011;17168;49.164;9.060;2023-03-01T00:40:39;9.48;;;5.05;;
30378;SDS011;17168;49.164;9.060;2023-03-01T00:43:11;10.43;;;5.22;;
30378;SDS011;17168;49.164;9.060;2023-03-01T00:45:43;11.27;;;5.20;;
30378;SDS011;17168;49.164;9.060;2023-03-01T00:48:15;14.25;;;6.07;;
30378;SDS011;17168;49.164;9.060;2023-03-01T00:50:47;13.82;;;6.18;;
30378;SDS011;17168;49.164;9.060;2023-03-01T00:53:19;11.45;;;5.45;;
30378;SDS011;17168;49.164;9.060;2023-03-01T00:55:53;8.57;;;3.95;;
30378;SDS011;17168;49.164;9.060;2023-03-01T00:58:28;12.57;;;5.45;;
30378;SDS011;17168;49.164;9.060;2023-03-01T01:01:01;11.50;;;6.13;;
30378;SDS011;17168;49.164;9.060;2023-03-01T01:03:49;10.73;;;5.20;;
30378;SDS011;17168;49.164;9.060;2023-03-01T01:06:23;12.05;;;5.68;;
30378;SDS011;17168;49.164;9.060;2023-03-01T01:08:57;12.85;;;6.32;;
30378;SDS011;17168;49.164;9.060;2023-03-01T01:11:32;15.70;;;6.28;;
30378;SDS011;17168;49.164;9.060;2023-03-01T01:14:06;12.43;;;6.13;;
30378;SDS011;17168;49.164;9.060;2023-03-01T01:16:38;14.40;;;6.90;;
30378;SDS011;17168;49.164;9.060;2023-03-01T01:21:42;15.90;;;6.78;;
30378;SDS011;17168;49.164;9.060;2023-03-01T01:24:15;10.63;;;5.78;;
30378;SDS011;17168;49.164;9.060;2023-03-01T01:26:49;15.23;;;6.85;;
30378;SDS011;17168;49.164;9.060;2023-03-01T01:29:22;14.75;;;5.93;;
30378;SDS011;17168;49.164;9.060;2023-03-01T01:31:54;12.00;;;6.32;;
30378;SDS011;17168;49.164;9.060;2023-03-01T01:34:26;14.52;;;6.18;;
30378;SDS011;17168;49.164;9.060;2023-03-01T01:36:58;15.07;;;6.88;;
30378;SDS011;17168;49.164;9.060;2023-03-01T01:39:34;13.00;;;6.00;;
30378;SDS011;17168;49.164;9.060;2023-03-01T01:42:10;12.65;;;6.07;;
30378;SDS011;17168;49.164;9.060;2023-03-01T01:44:46;14.43;;;6.28;;
30378;SDS011;17168;49.164;9.060;2023-03-01T01:47:19;11.80;;;5.38;;
30378;SDS011;17168;49.164;9.060;2023-03-01T01:49:54;12.38;;;6.60;;
30378;SDS011;17168;49.164;9.060;2023-03-01T01:52:28;14.77;;;6.68;;
30378;SDS011;17168;49.164;9.060;2023-03-01T01:55:06;14.05;;;6.72;;
30378;SDS011;17168;49.164;9.060;2023-03-01T01:57:45;13.35;;;6.75;;
30378;SDS011;17168;49.164;9.060;2023-03-01T02:00:19;15.25;;;7.25;;
30378;SDS011;17168;49.164;9.060;2023-03-01T02:02:54;14.30;;;6.90;;
30378;SDS011;17168;49.164;9.060;2023-03-01T02:08:06;15.05;;;6.70;;
30378;SDS011;17168;49.164;9.060;2023-03-01T02:13:16;13.35;;;6.38;;
30378;SDS011;17168;49.164;9.060;2023-03-01T02:15:48;12.82;;;6.90;;
30378;SDS011;17168;49.164;9.060;2023-03-01T02:18:21;12.60;;;6.60;;
30378;SDS011;17168;49.164;9.060;2023-03-01T02:20:58;14.98;;;7.03;;
30378;SDS011;17168;49.164;9.060;2023-03-01T02:23:40;13.05;;;6.93;;
30378;SDS011;17168;49.164;9.060;2023-03-01T02:26:17;12.98;;;6.07;;
30378;SDS011;17168;49.164;9.060;2023-03-01T02:28:58;14.90;;;6.57;;
30378;SDS011;17168;49.164;9.060;2023-03-01T02:31:30;13.90;;;6.25;;
30378;SDS011;17168;49.164;9.060;2023-03-01T02:34:17;15.25;;;7.15;;
30378;SDS011;17168;49.164;9.060;2023-03-01T02:36:52;12.27;;;6.78;;
30378;SDS011;17168;49.164;9.060;2023-03-01T02:39:28;16.08;;;6.80;;
30378;SDS011;17168;49.164;9.060;2023-03-01T02:42:04;14.00;;;6.78;;
30378;SDS011;17168;49.164;9.060;2023-03-01T02:44:40;14.02;;;6.65;;
30378;SDS011;17168;49.164;9.060;2023-03-01T02:47:12;16.38;;;8.05;;
30378;SDS011;17168;49.164;9.060;2023-03-01T02:49:44;16.17;;;7.50;;
30378;SDS011;17168;49.164;9.060;2023-03-01T02:52:20;14.48;;;7.18;;
30378;SDS011;17168;49.164;9.060;2023-03-01T02:55:02;14.10;;;6.78;;
30378;SDS011;17168;49.164;9.060;2023-03-01T02:57:37;15.00;;;6.82;;
30378;SDS011;17168;49.164;9.060;2023-03-01T03:00:15;13.68;;;6.93;;
30378;SDS011;17168;49.164;9.060;2023-03-01T03:02:53;16.30;;;7.32;;
30378;SDS011;17168;49.164;9.060;2023-03-01T03:10:34;16.35;;;7.20;;
30378;SDS011;17168;49.164;9.060;2023-03-01T03:13:09;13.57;;;6.90;;
30378;SDS011;17168;49.164;9.060;2023-03-01T03:15:45;13.43;;;6.60;;
30378;SDS011;17168;49.164;9.060;2023-03-01T03:18:17;14.82;;;7.50;;
30378;SDS011;17168;49.164;9.060;2023-03-01T03:20:50;14.40;;;7.20;;
30378;SDS011;17168;49.164;9.060;2023-03-01T03:41:17;15.25;;;6.82;;
30378;SDS011;17168;49.164;9.060;2023-03-01T05:54:07;12.30;;;5.85;;
30378;SDS011;17168;49.164;9.060;2023-03-01T05:56:40;17.67;;;7.72;;
30378;SDS011;17168;49.164;9.060;2023-03-01T05:59:12;21.15;;;8.45;;
30378;SDS011;17168;49.164;9.060;2023-03-01T08:42:29;15.98;;;7.50;;
30378;SDS011;17168;49.164;9.060;2023-03-01T08:45:01;19.60;;;8.52;;
30378;SDS011;17168;49.164;9.060;2023-03-01T08:47:33;19.88;;;9.65;;
30378;SDS011;17168;49.164;9.060;2023-03-01T08:52:40;16.73;;;7.57;;
30378;SDS011;17168;49.164;9.060;2023-03-01T08:55:12;11.98;;;6.03;;
30378;SDS011;17168;49.164;9.060;2023-03-01T08:57:46;15.55;;;7.57;;
30378;SDS011;17168;49.164;9.060;2023-03-01T09:00:18;18.50;;;8.30;;
30378;SDS011;17168;49.164;9.060;2023-03-01T09:02:51;17.85;;;7.63;;
30378;SDS011;17168;49.164;9.060;2023-03-01T09:05:23;18.23;;;8.40;;
30378;SDS011;17168;49.164;9.060;2023-03-01T09:10:31;18.83;;;8.18;;
30378;SDS011;17168;49.164;9.060;2023-03-01T09:15:36;19.15;;;8.40;;
30378;SDS011;17168;49.164;9.060;2023-03-01T09:18:11;16.40;;;8.40;;
30378;SDS011;17168;49.164;9.060;2023-03-01T09:20:43;21.15;;;9.35;;
30378;SDS011;17168;49.164;9.060;2023-03-01T09:23:17;18.65;;;8.93;;
30378;SDS011;17168;49.164;9.060;2023-03-01T09:25:49;17.77;;;8.90;;
30378;SDS011;17168;49.164;9.060;2023-03-01T09:28:21;21.00;;;9.50;;
30378;SDS011;17168;49.164;9.060;2023-03-01T09:31:00;19.95;;;9.02;;
30378;SDS011;17168;49.164;9.060;2023-03-01T09:33:33;19.02;;;8.73;;
30378;SDS011;17168;49.164;9.060;2023-03-01T09:38:41;18.52;;;8.43;;
30378;SDS011;17168;49.164;9.060;2023-03-01T09:41:18;25.15;;;9.73;;
30378;SDS011;17168;49.164;9.060;2023-03-01T09:44:00;24.60;;;10.73;;
30378;SDS011;17168;49.164;9.060;2023-03-01T09:46:37;21.92;;;9.60;;
30378;SDS011;17168;49.164;9.060;2023-03-01T09:49:14;20.90;;;8.85;;
30378;SDS011;17168;49.164;9.060;2023-03-01T09:51:58;19.02;;;8.65;;
30378;SDS011;17168;49.164;9.060;2023-03-01T09:54:34;19.25;;;9.57;;
30378;SDS011;17168;49.164;9.060;2023-03-01T09:57:12;21.77;;;9.93;;
30378;SDS011;17168;49.164;9.060;2023-03-01T09:59:55;18.92;;;9.10;;
30378;SDS011;17168;49.164;9.060;2023-03-01T10:05:26;20.05;;;9.32;;
30378;SDS011;17168;49.164;9.060;2023-03-01T10:08:14;18.60;;;8.73;;
30378;SDS011;17168;49.164;9.060;2023-03-01T10:10:59;18.52;;;8.70;;
30378;SDS011;17168;49.164;9.060;2023-03-01T10:13:34;19.98;;;10.95;;
30378;SDS011;17168;49.164;9.060;2023-03-01T10:16:18;21.15;;;9.90;;
30378;SDS011;17168;49.164;9.060;2023-03-01T10:18:57;18.88;;;9.65;;
30378;SDS011;17168;49.164;9.060;2023-03-01T10:34:35;18.65;;;9.55;;
30378;SDS011;17168;49.164;9.060;2023-03-01T10:37:12;23.27;;;10.85;;
30378;SDS011;17168;49.164;9.060;2023-03-01T10:39:58;18.50;;;9.63;;
30378;SDS011;17168;49.164;9.060;2023-03-01T10:42:45;18.45;;;8.98;;
30378;SDS011;17168;49.164;9.060;2023-03-01T10:45:31;19.75;;;10.13;;
30378;SDS011;17168;49.164;9.060;2023-03-01T10:48:14;20.17;;;10.18;;
30378;SDS011;17168;49.164;9.060;2023-03-01T10:50:49;20.15;;;10.13;;
30378;SDS011;17168;49.164;9.060;2023-03-01T10:53:24;16.75;;;9.18;;
30378;SDS011;17168;49.164;9.060;2023-03-01T10:56:01;19.77;;;9.65;;
30378;SDS011;17168;49.164;9.060;2023-03-01T10:58:38;17.77;;;9.00;;
30378;SDS011;17168;49.164;9.060;2023-03-01T11:01:23;19.33;;;10.25;;
30378;SDS011;17168;49.164;9.060;2023-03-01T11:04:08;19.15;;;9.63;;
30378;SDS011;17168;49.164;9.060;2023-03-01T11:06:43;16.80;;;8.60;;
30378;SDS011;17168;49.164;9.060;2023-03-01T11:22:36;17.90;;;10.50;;
30378;SDS011;17168;49.164;9.060;2023-03-01T11:33:01;21.20;;;9.18;;
30378;SDS011;17168;49.164;9.060;2023-03-01T11:35:41;18.38;;;10.43;;
30378;SDS011;17168;49.164;9.060;2023-03-01T11:38:17;19.33;;;9.20;;
30378;SDS011;17168;49.164;9.060;2023-03-01T11:40:54;19.70;;;10.38;;
30378;SDS011;17168;49.164;9.060;2023-03-01T12:02:46;20.45;;;9.23;;
30378;SDS011;17168;49.164;9.060;2023-03-01T12:11:12;19.73;;;10.15;;
30378;SDS011;17168;49.164;9.060;2023-03-01T12:14:10;21.50;;;10.90;;
30378;SDS011;17168;49.164;9.060;2023-03-01T12:33:44;18.13;;;9.63;;
30378;SDS011;17168;49.164;9.060;2023-03-01T12:36:27;20.88;;;12.07;;
30378;SDS011;17168;49.164;9.060;2023-03-01T12:39:10;15.30;;;10.10;;
30378;SDS011;17168;49.164;9.060;2023-03-01T13:05:42;16.27;;;10.55;;
30378;SDS011;17168;49.164;9.060;2023-03-01T13:08:26;18.15;;;10.98;;
30378;SDS011;17168;49.164;9.060;2023-03-01T13:16:21;18.25;;;10.85;;
30378;SDS011;17168;49.164;9.060;2023-03-01T13:19:10;17.98;;;10.90;;
30378;SDS011;17168;49.164;9.060;2023-03-01T13:21:47;15.93;;;10.70;;
30378;SDS011;17168;49.164;9.060;2023-03-01T13:29:54;13.68;;;10.40;;
30378;SDS011;17168;49.164;9.060;2023-03-01T13:32:27;16.85;;;10.55;;
30378;SDS011;17168;49.164;9.060;2023-03-01T13:41:16;17.38;;;11.40;;
30378;SDS011;17168;49.164;9.060;2023-03-01T13:44:15;16.88;;;11.00;;
30378;SDS011;17168;49.164;9.060;2023-03-01T13:46:59;17.90;;;11.38;;
30378;SDS011;17168;49.164;9.060;2023-03-01T13:49:36;30.77;;;11.85;;
30378;SDS011;17168;49.164;9.060;2023-03-01T13:52:26;17.50;;;10.82;;
30378;SDS011;17168;49.164;9.060;2023-03-01T13:55:15;16.42;;;11.70;;
30378;SDS011;17168;49.164;9.060;2023-03-01T13:57:50;15.43;;;10.55;;
30378;SDS011;17168;49.164;9.060;2023-03-01T14:00:38;16.15;;;10.43;;
30378;SDS011;17168;49.164;9.060;2023-03-01T14:03:12;14.35;;;10.70;;
30378;SDS011;17168;49.164;9.060;2023-03-01T14:05:57;15.48;;;10.23;;
30378;SDS011;17168;49.164;9.060;2023-03-01T14:08:45;16.80;;;10.95;;
30378;SDS011;17168;49.164;9.060;2023-03-01T14:11:32;17.77;;;10.98;;
30378;SDS011;17168;49.164;9.060;2023-03-01T14:14:22;16.55;;;11.25;;
30378;SDS011;17168;49.164;9.060;2023-03-01T14:17:19;16.80;;;11.45;;
30378;SDS011;17168;49.164;9.060;2023-03-01T14:20:11;16.08;;;10.50;;
30378;SDS011;17168;49.164;9.060;2023-03-01T14:25:21;16.88;;;10.93;;
30378;SDS011;17168;49.164;9.060;2023-03-01T14:27:57;15.50;;;10.57;;
30378;SDS011;17168;49.164;9.060;2023-03-01T14:30:36;17.83;;;10.75;;
30378;SDS011;17168;49.164;9.060;2023-03-01T14:33:21;16.63;;;10.43;;
30378;SDS011;17168;49.164;9.060;2023-03-01T14:35:56;17.95;;;11.50;;
30378;SDS011;17168;49.164;9.060;2023-03-01T14:38:31;18.13;;;10.48;;
30378;SDS011;17168;49.164;9.060;2023-03-01T14:41:07;16.75;;;10.93;;
30378;SDS011;17168;49.164;9.060;2023-03-01T14:43:43;16.38;;;10.18;;
30378;SDS011;17168;49.164;9.060;2023-03-01T14:46:17;16.25;;;10.68;;
30378;SDS011;17168;49.164;9.060;2023-03-01T14:48:55;16.52;;;10.48;;
30378;SDS011;17168;49.164;9.060;2023-03-01T14:51:35;18.17;;;10.63;;
30378;SDS011;17168;49.164;9.060;2023-03-01T14:54:16;17.08;;;11.55;;
30378;SDS011;17168;49.164;9.060;2023-03-01T14:56:53;17.77;;;11.27;;
30378;SDS011;17168;49.164;9.060;2023-03-01T14:59:29;15.80;;;9.52;;
30378;SDS011;17168;49.164;9.060;2023-03-01T15:25:47;17.05;;;10.02;;
30378;SDS011;17168;49.164;9.060;2023-03-01T15:28:28;16.00;;;9.68;;
30378;SDS011;17168;49.164;9.060;2023-03-01T15:33:50;16.02;;;10.07;;
30378;SDS011;17168;49.164;9.060;2023-03-01T15:36:33;15.93;;;10.23;;
30378;SDS011;17168;49.164;9.060;2023-03-01T15:41:57;14.85;;;9.90;;
30378;SDS011;17168;49.164;9.060;2023-03-01T15:44:32;18.40;;;9.75;;
30378;SDS011;17168;49.164;9.060;2023-03-01T15:47:25;16.60;;;9.55;;
30378;SDS011;17168;49.164;9.060;2023-03-01T15:49:59;16.67;;;9.57;;
30378;SDS011;17168;49.164;9.060;2023-03-01T15:52:38;17.40;;;10.10;;
30378;SDS011;17168;49.164;9.060;2023-03-01T15:55:16;16.80;;;9.57;;
30378;SDS011;17168;49.164;9.060;2023-03-01T15:57:50;17.23;;;9.63;;
30378;SDS011;17168;49.164;9.060;2023-03-01T16:00:33;16.70;;;9.90;;
30378;SDS011;17168;49.164;9.060;2023-03-01T16:13:21;18.17;;;9.88;;
30378;SDS011;17168;49.164;9.060;2023-03-01T16:20:57;18.38;;;10.07;;
30378;SDS011;17168;49.164;9.060;2023-03-01T16:23:31;15.95;;;9.70;;
30378;SDS011;17168;49.164;9.060;2023-03-01T16:33:40;16.85;;;10.63;;
30378;SDS011;17168;49.164;9.060;2023-03-01T16:36:29;15.45;;;9.32;;
30378;SDS011;17168;49.164;9.060;2023-03-01T16:44:15;14.60;;;8.52;;
30378;SDS011;17168;49.164;9.060;2023-03-01T16:57:00;20.23;;;10.88;;
30378;SDS011;17168;49.164;9.060;2023-03-01T16:59:32;17.02;;;10.13;;
30378;SDS011;17168;49.164;9.060;2023-03-01T17:02:04;17.00;;;9.02;;
30378;SDS011;17168;49.164;9.060;2023-03-01T17:04:41;17.17;;;9.98;;
30378;SDS011;17168;49.164;9.060;2023-03-01T17:07:13;18.08;;;10.05;;
30378;SDS011;17168;49.164;9.060;2023-03-01T17:09:48;18.23;;;10.70;;
30378;SDS011;17168;49.164;9.060;2023-03-01T17:12:20;22.45;;;11.68;;
30378;SDS011;17168;49.164;9.060;2023-03-01T17:14:52;19.77;;;10.85;;
30378;SDS011;17168;49.164;9.060;2023-03-01T17:17:24;20.60;;;11.05;;
30378;SDS011;17168;49.164;9.060;2023-03-01T17:19:56;18.70;;;10.40;;
30378;SDS011;17168;49.164;9.060;2023-03-01T17:22:28;21.20;;;10.18;;
30378;SDS011;17168;49.164;9.060;2023-03-01T17:25:03;21.02;;;10.07;;
30378;SDS011;17168;49.164;9.060;2023-03-01T17:27:38;17.75;;;9.40;;
30378;SDS011;17168;49.164;9.060;2023-03-01T17:30:11;20.33;;;10.32;;
30378;SDS011;17168;49.164;9.060;2023-03-01T17:32:45;20.30;;;9.82;;
30378;SDS011;17168;49.164;9.060;2023-03-01T17:35:17;20.08;;;9.00;;
30378;SDS011;17168;49.164;9.060;2023-03-01T17:37:49;17.95;;;9.20;;
30378;SDS011;17168;49.164;9.060;2023-03-01T17:40:24;19.55;;;9.55;;
30378;SDS011;17168;49.164;9.060;2023-03-01T17:42:56;19.02;;;9.55;;
30378;SDS011;17168;49.164;9.060;2023-03-01T17:45:28;17.42;;;9.30;;
30378;SDS011;17168;49.164;9.060;2023-03-01T17:48:00;20.45;;;10.23;;
30378;SDS011;17168;49.164;9.060;2023-03-01T17:50:32;17.15;;;8.75;;
30378;SDS011;17168;49.164;9.060;2023-03-01T17:53:09;18.02;;;9.50;;
30378;SDS011;17168;49.164;9.060;2023-03-01T17:55:44;21.00;;;10.75;;
30378;SDS011;17168;49.164;9.060;2023-03-01T17:58:16;18.58;;;10.18;;
30378;SDS011;17168;49.164;9.060;2023-03-01T18:00:53;19.20;;;10.73;;
30378;SDS011;17168;49.164;9.060;2023-03-01T18:03:25;20.33;;;10.73;;
30378;SDS011;17168;49.164;9.060;2023-03-01T18:05:57;20.17;;;10.77;;
30378;SDS011;17168;49.164;9.060;2023-03-01T18:08:29;15.45;;;8.73;;
30378;SDS011;17168;49.164;9.060;2023-03-01T18:11:03;17.75;;;8.82;;
30378;SDS011;17168;49.164;9.060;2023-03-01T18:13:36;18.55;;;9.13;;
30378;SDS011;17168;49.164;9.060;2023-03-01T18:16:10;18.17;;;8.88;;
30378;SDS011;17168;49.164;9.060;2023-03-01T18:18:44;18.65;;;8.85;;
30378;SDS011;17168;49.164;9.060;2023-03-01T18:21:16;15.80;;;8.48;;
30378;SDS011;17168;49.164;9.060;2023-03-01T18:23:48;19.30;;;10.48;;
30378;SDS011;17168;49.164;9.060;2023-03-01T18:26:23;18.23;;;10.40;;
30378;SDS011;17168;49.164;9.060;2023-03-01T18:28:57;18.48;;;10.23;;
30378;SDS011;17168;49.164;9.060;2023-03-01T18:31:31;26.33;;;11.35;;
30378;SDS011;17168;49.164;9.060;2023-03-01T18:34:04;18.73;;;9.18;;
30378;SDS011;17168;49.164;9.060;2023-03-01T18:36:36;17.92;;;9.32;;
30378;SDS011;17168;49.164;9.060;2023-03-01T18:39:09;16.58;;;9.68;;
30378;SDS011;17168;49.164;9.060;2023-03-01T18:41:44;16.92;;;9.30;;
30378;SDS011;17168;49.164;9.060;2023-03-01T18:44:16;19.25;;;10.65;;
30378;SDS011;17168;49.164;9.060;2023-03-01T18:46:48;17.52;;;10.13;;
30378;SDS011;17168;49.164;9.060;2023-03-01T18:49:20;16.02;;;9.15;;
30378;SDS011;17168;49.164;9.060;2023-03-01T18:51:52;15.70;;;8.00;;
30378;SDS011;17168;49.164;9.060;2023-03-01T18:54:24;18.95;;;8.68;;
30378;SDS011;17168;49.164;9.060;2023-03-01T18:56:59;16.42;;;8.95;;
30378;SDS011;17168;49.164;9.060;2023-03-01T18:59:31;17.38;;;8.90;;
30378;SDS011;17168;49.164;9.060;2023-03-01T19:02:03;16.23;;;8.27;;
30378;SDS011;17168;49.164;9.060;2023-03-01T19:04:35;19.27;;;8.75;;
30378;SDS011;17168;49.164;9.060;2023-03-01T19:07:07;20.83;;;8.55;;
30378;SDS011;17168;49.164;9.060;2023-03-01T19:09:39;15.90;;;8.35;;
30378;SDS011;17168;49.164;9.060;2023-03-01T19:12:14;16.67;;;7.95;;
30378;SDS011;17168;49.164;9.060;2023-03-01T19:14:46;17.98;;;8.57;;
30378;SDS011;17168;49.164;9.060;2023-03-01T19:17:20;17.38;;;7.78;;
30378;SDS011;17168;49.164;9.060;2023-03-01T19:19:52;14.05;;;7.80;;
30378;SDS011;17168;49.164;9.060;2023-03-01T19:22:25;14.52;;;7.30;;
30378;SDS011;17168;49.164;9.060;2023-03-01T19:24:57;16.63;;;8.15;;
30378;SDS011;17168;49.164;9.060;2023-03-01T19:27:32;15.75;;;8.82;;
30378;SDS011;17168;49.164;9.060;2023-03-01T19:30:04;14.40;;;7.80;;
30378;SDS011;17168;49.164;9.060;2023-03-01T19:32:38;16.88;;;8.20;;
30378;SDS011;17168;49.164;9.060;2023-03-01T19:35:10;16.00;;;8.48;;
30378;SDS011;17168;49.164;9.060;2023-03-01T19:37:59;16.02;;;9.98;;
30378;SDS011;17168;49.164;9.060;2023-03-01T19:40:31;13.60;;;7.45;;
30378;SDS011;17168;49.164;9.060;2023-03-01T19:43:06;19.60;;;9.32;;
30378;SDS011;17168;49.164;9.060;2023-03-01T19:45:38;12.13;;;7.18;;
30378;SDS011;17168;49.164;9.060;2023-03-01T19:48:10;14.05;;;7.43;;
30378;SDS011;17168;49.164;9.060;2023-03-01T19:58:23;16.52;;;7.43;;
30378;SDS011;17168;49.164;9.060;2023-03-01T20:00:55;15.85;;;7.65;;
30378;SDS011;17168;49.164;9.060;2023-03-01T20:03:32;18.60;;;7.80;;
30378;SDS011;17168;49.164;9.060;2023-03-01T20:06:08;15.25;;;8.02;;
30378;SDS011;17168;49.164;9.060;2023-03-01T20:08:42;16.05;;;9.43;;
30378;SDS011;17168;49.164;9.060;2023-03-01T20:11:15;16.40;;;8.27;;
30378;SDS011;17168;49.164;9.060;2023-03-01T20:13:51;16.02;;;7.85;;
30378;SDS011;17168;49.164;9.060;2023-03-01T20:16:23;18.83;;;9.43;;
30378;SDS011;17168;49.164;9.060;2023-03-01T20:18:58;19.63;;;9.40;;
30378;SDS011;17168;49.164;9.060;2023-03-01T20:21:31;17.50;;;9.05;;
30378;SDS011;17168;49.164;9.060;2023-03-01T20:24:06;16.90;;;8.77;;
30378;SDS011;17168;49.164;9.060;2023-03-01T20:26:38;16.63;;;9.10;;
30378;SDS011;17168;49.164;9.060;2023-03-01T20:29:14;17.90;;;8.80;;
30378;SDS011;17168;49.164;9.060;2023-03-01T20:31:46;19.75;;;9.45;;
30378;SDS011;17168;49.164;9.060;2023-03-01T20:34:18;14.40;;;7.97;;
30378;SDS011;17168;49.164;9.060;2023-03-01T20:36:59;20.17;;;9.60;;
30378;SDS011;17168;49.164;9.060;2023-03-01T20:39:31;19.83;;;10.27;;
30378;SDS011;17168;49.164;9.060;2023-03-01T20:42:03;19.77;;;9.55;;
30378;SDS011;17168;49.164;9.060;2023-03-01T20:44:38;17.38;;;9.40;;
30378;SDS011;17168;49.164;9.060;2023-03-01T20:47:14;17.40;;;9.25;;
30378;SDS011;17168;49.164;9.060;2023-03-01T20:49:49;17.02;;;9.27;;
30378;SDS011;17168;49.164;9.060;2023-03-01T20:52:21;20.27;;;10.02;;
30378;SDS011;17168;49.164;9.060;2023-03-01T20:54:53;18.45;;;9.20;;
30378;SDS011;17168;49.164;9.060;2023-03-01T20:57:25;19.58;;;9.95;;
30378;SDS011;17168;49.164;9.060;2023-03-01T21:00:00;17.38;;;9.45;;
30378;SDS011;17168;49.164;9.060;2023-03-01T21:10:28;19.80;;;9.65;;
30378;SDS011;17168;49.164;9.060;2023-03-01T21:13:01;18.90;;;9.32;;
30378;SDS011;17168;49.164;9.060;2023-03-01T21:15:35;19.30;;;9.48;;
30378;SDS011;17168;49.164;9.060;2023-03-01T21:18:07;18.70;;;9.32;;
30378;SDS011;17168;49.164;9.060;2023-03-01T21:28:19;19.67;;;9.52;;
30378;SDS011;17168;49.164;9.060;2023-03-01T21:30:54;21.05;;;9.88;;
30378;SDS011;17168;49.164;9.060;2023-03-01T21:33:26;21.20;;;10.82;;
30378;SDS011;17168;49.164;9.060;2023-03-01T21:35:58;16.65;;;8.65;;
30378;SDS011;17168;49.164;9.060;2023-03-01T21:38:31;18.77;;;9.02;;
30378;SDS011;17168;49.164;9.060;2023-03-01T21:41:06;20.52;;;10.05;;
30378;SDS011;17168;49.164;9.060;2023-03-01T21:43:41;20.75;;;9.65;;
30378;SDS011;17168;49.164;9.060;2023-03-01T21:46:18;20.17;;;10.05;;
30378;SDS011;17168;49.164;9.060;2023-03-01T21:48:52;23.00;;;11.00;;
30378;SDS011;17168;49.164;9.060;2023-03-01T21:51:25;24.23;;;11.55;;
30378;SDS011;17168;49.164;9.060;2023-03-01T21:53:58;21.25;;;10.80;;
30378;SDS011;17168;49.164;9.060;2023-03-01T21:56:32;20.05;;;10.32;;
30378;SDS011;17168;49.164;9.060;2023-03-01T21:59:10;20.63;;;10.25;;
30378;SDS011;17168;49.164;9.060;2023-03-01T22:01:48;23.33;;;11.25;;
30378;SDS011;17168;49.164;9.060;2023-03-01T22:04:20;20.83;;;10.30;;
30378;SDS011;17168;49.164;9.060;2023-03-01T22:06:55;24.80;;;11.07;;
30378;SDS011;17168;49.164;9.060;2023-03-01T22:09:27;22.58;;;11.70;;
30378;SDS011;17168;49.164;9.060;2023-03-01T22:12:00;21.50;;;11.00;;
30378;SDS011;17168;49.164;9.060;2023-03-01T22:14:33;22.48;;;10.48;;
30378;SDS011;17168;49.164;9.060;2023-03-01T22:17:07;23.73;;;11.63;;
30378;SDS011;17168;49.164;9.060;2023-03-01T22:19:40;21.58;;;11.27;;
30378;SDS011;17168;49.164;9.060;2023-03-01T22:22:12;25.33;;;11.80;;
30378;SDS011;17168;49.164;9.060;2023-03-01T22:24:44;22.13;;;11.10;;
30378;SDS011;17168;49.164;9.060;2023-03-01T22:27:16;24.55;;;11.90;;
30378;SDS011;17168;49.164;9.060;2023-03-01T22:29:48;24.88;;;11.23;;
30378;SDS011;17168;49.164;9.060;2023-03-01T22:32:22;25.42;;;12.75;;
30378;SDS011;17168;49.164;9.060;2023-03-01T22:34:54;25.25;;;11.55;;
30378;SDS011;17168;49.164;9.060;2023-03-01T22:37:26;21.55;;;11.77;;
30378;SDS011;17168;49.164;9.060;2023-03-01T22:39:58;23.50;;;12.00;;
30378;SDS011;17168;49.164;9.060;2023-03-01T22:42:30;20.63;;;10.77;;
30378;SDS011;17168;49.164;9.060;2023-03-01T22:45:03;21.30;;;11.63;;
30378;SDS011;17168;49.164;9.060;2023-03-01T22:47:39;21.63;;;11.45;;
30378;SDS011;17168;49.164;9.060;2023-03-01T22:50:11;23.63;;;12.13;;
30378;SDS011;17168;49.164;9.060;2023-03-01T22:52:45;25.85;;;11.27;;
30378;SDS011;17168;49.164;9.060;2023-03-01T22:55:17;22.90;;;11.95;;
30378;SDS011;17168;49.164;9.060;2023-03-01T22:57:49;20.65;;;11.60;;
30378;SDS011;17168;49.164;9.060;2023-03-01T23:00:21;21.45;;;11.43;;
30378;SDS011;17168;49.164;9.060;2023-03-01T23:02:57;22.70;;;10.98;;
30378;SDS011;17168;49.164;9.060;2023-03-01T23:05:29;20.50;;;10.98;;
30378;SDS011;17168;49.164;9.060;2023-03-01T23:08:01;21.33;;;10.82;;
30378;SDS011;17168;49.164;9.060;2023-03-01T23:10:33;21.25;;;11.75;;
30378;SDS011;17168;49.164;9.060;2023-03-01T23:13:10;24.38;;;11.68;;
30378;SDS011;17168;49.164;9.060;2023-03-01T23:15:42;22.63;;;12.00;;
30378;SDS011;17168;49.164;9.060;2023-03-01T23:18:17;23.75;;;12.05;;
30378;SDS011;17168;49.164;9.060;2023-03-01T23:20:49;22.15;;;10.45;;
30378;SDS011;17168;49.164;9.060;2023-03-01T23:23:21;21.08;;;12.23;;
30378;SDS011;17168;49.164;9.060;2023-03-01T23:25:53;23.05;;;11.80;;
30378;SDS011;17168;49.164;9.060;2023-03-01T23:28:26;21.90;;;10.77;;
30378;SDS011;17168;49.164;9.060;2023-03-01T23:31:00;22.52;;;10.60;;
30378;SDS011;17168;49.164;9.060;2023-03-01T23:33:36;24.55;;;12.38;;
30378;SDS011;17168;49.164;9.060;2023-03-01T23:36:16;23.20;;;11.45;;
30378;SDS011;17168;49.164;9.060;2023-03-01T23:38:51;24.45;;;12.50;;
30378;SDS011;17168;49.164;9.060;2023-03-01T23:41:26;22.88;;;12.23;;
30378;SDS011;17168;49.164;9.060;2023-03-01T23:44:00;22.75;;;11.52;;
30378;SDS011;17168;49.164;9.060;2023-03-01T23:46:34;21.33;;;10.75;;
30378;SDS011;17168;49.164;9.060;2023-03-01T23:49:10;23.88;;;11.38;;
30378;SDS011;17168;49.164;9.060;2023-03-01T23:51:44;21.80;;;11.48;;
30378;SDS011;17168;49.164;9.060;2023-03-01T23:54:18;26.98;;;11.80;;
30378;SDS011;17168;49.164;9.060;2023-03-01T23:56:51;24.33;;;12.20;;
30378;SDS011;17168;49.164;9.060;2023-03-01T23:59:23;23.88;;;11.73;;
